Time;durP1;ratioP1;P1;durP2;ratioP2;P2;SDS_P1;SDS_P2;PMS_P1;PMS_P2;Temp;Humidity;BMP_temperature;BMP_pressure;BME280_temperature;BME280_humidity;BME280_pressure;Samples;Min_cycle;Max_cycle;Signal;HPM_P1;HPM_P2
2022/11/07 05:30:26;;;;;;;;;1.67;1.67;;;;;-147.14;100.00;58812.66;5923104;22;46729;-72
2022/11/07 05:32:51;;;;;;;;;2.67;2.00;;;;;-147.14;100.00;58812.66;5010462;28;67811;-72
2022/11/07 05:35:17;;;;;;;;;3.67;2.00;;;;;-147.14;100.00;58812.66;5007502;28;64367;-72
2022/11/07 05:37:42;;;;;;;;;3.67;1.00;;;;;-147.14;100.00;58812.66;5000656;28;68757;-72
2022/11/07 05:40:08;;;;;;;;;3.00;1.67;;;;;-147.14;100.00;58812.66;4998464;28;45967;-72
2022/11/07 05:42:33;;;;;;;;;3.67;2.00;;;;;-147.14;100.00;58812.66;5013470;28;45613;-73
2022/11/07 05:44:59;;;;;;;;;3.67;1.67;;;;;-147.14;100.00;58812.66;5000571;28;63058;-72
2022/11/07 05:47:24;;;;;;;;;2.00;2.00;;;;;-147.14;100.00;58812.66;5004210;28;45532;-72
2022/11/07 05:49:49;;;;;;;;;3.67;1.00;;;;;-147.14;100.00;58812.66;5013738;28;69599;-73
2022/11/07 05:52:15;;;;;;;;;3.33;2.33;;;;;-147.14;100.00;58812.66;5000410;28;72505;-72
2022/11/07 05:54:40;;;;;;;;;5.00;1.67;;;;;-147.14;100.00;58812.66;4997924;28;59951;-72
2022/11/07 05:57:06;;;;;;;;;2.67;1.00;;;;;-147.14;100.00;58812.66;5001911;28;45655;-71
2022/11/07 05:59:31;;;;;;;;;2.00;2.00;;;;;-147.14;100.00;58812.66;5010029;28;70720;-71
2022/11/07 06:01:56;;;;;;;;;1.67;1.67;;;;;-147.14;100.00;58812.66;5006077;28;45441;-71
2022/11/07 06:04:22;;;;;;;;;4.00;3.00;;;;;-147.14;100.00;58812.66;5003636;28;63205;-71
2022/11/07 06:06:47;;;;;;;;;5.67;2.33;;;;;-147.14;100.00;58812.66;5006293;28;47931;-71
2022/11/07 06:09:12;;;;;;;;;3.00;3.00;;;;;-147.14;100.00;58812.66;4998231;28;71266;-72
2022/11/07 06:11:38;;;;;;;;;2.00;2.00;;;;;-147.14;100.00;58812.66;4998068;28;45455;-71
2022/11/07 06:14:03;;;;;;;;;4.00;2.00;;;;;-147.14;100.00;58812.66;5008352;28;62193;-72
2022/11/07 06:16:28;;;;;;;;;5.00;1.00;;;;;-147.14;100.00;58812.66;5000926;28;45408;-71
2022/11/07 06:18:54;;;;;;;;;1.67;1.00;;;;;-147.14;100.00;58812.66;5003747;28;71576;-70
2022/11/07 06:21:19;;;;;;;;;1.00;1.00;;;;;-147.14;100.00;58812.66;5012006;28;70606;-72
2022/11/07 06:23:44;;;;;;;;;3.67;2.33;;;;;-147.14;100.00;58812.66;5001572;28;45401;-72
2022/11/07 06:26:10;;;;;;;;;4.33;3.00;;;;;-147.14;100.00;58812.66;5008194;28;65247;-72
2022/11/07 06:28:35;;;;;;;;;1.67;1.67;;;;;-147.14;100.00;58812.66;5005117;28;73986;-70
2022/11/07 06:31:02;;;;;;;;;3.00;1.33;;;;;-147.14;100.00;58812.66;5003656;28;45896;-71
2022/11/07 06:33:31;;;;;;;;;6.00;1.33;;;;;-147.14;100.00;58812.66;5001641;28;45356;-70
2022/11/07 06:36:07;;;;;;;;;5.33;3.00;;;;;-147.14;100.00;58812.66;5001035;28;45411;-71
2022/11/07 06:38:33;;;;;;;;;3.00;3.00;;;;;-147.14;100.00;58812.66;5008768;28;46297;-71
2022/11/07 06:41:06;;;;;;;;;3.67;2.33;;;;;-147.14;100.00;58812.66;4996902;28;45349;-72
2022/11/07 06:43:32;;;;;;;;;4.00;2.33;;;;;-147.14;100.00;58812.66;5008887;28;45482;-72
2022/11/07 06:46:04;;;;;;;;;3.33;1.00;;;;;-147.14;100.00;58812.66;4998085;28;45439;-72
2022/11/07 06:48:30;;;;;;;;;3.33;2.00;;;;;-147.14;100.00;58812.66;5013071;28;45857;-73
2022/11/07 06:50:57;;;;;;;;;4.00;2.00;;;;;-147.14;100.00;58812.66;4998187;28;45348;-73
2022/11/07 06:53:22;;;;;;;;;6.67;1.00;;;;;-147.14;100.00;58812.66;5019261;28;45421;-73
2022/11/07 06:56:19;;;;;;;;;2.33;2.33;;;;;-147.14;100.00;58812.66;4999524;28;67973;-71
2022/11/07 06:58:44;;;;;;;;;4.00;3.00;;;;;-147.14;100.00;58812.66;5008797;28;46349;-72
2022/11/07 07:01:13;;;;;;;;;10.00;3.00;;;;;-147.14;100.00;58812.66;5007566;28;45444;-72
2022/11/07 07:03:39;;;;;;;;;3.67;2.00;;;;;-147.14;100.00;58812.66;5001215;28;45440;-72
2022/11/07 07:06:06;;;;;;;;;1.33;1.33;;;;;-147.14;100.00;58812.66;5001652;28;45357;-72
2022/11/07 07:08:32;;;;;;;;;3.00;3.00;;;;;-147.14;100.00;58812.66;5002723;28;46298;-72
2022/11/07 07:11:06;;;;;;;;;3.33;1.00;;;;;-147.14;100.00;58812.66;5006962;28;66815;-67
2022/11/07 07:13:32;;;;;;;;;3.00;1.00;;;;;-147.14;100.00;58812.66;5000857;28;45382;-60
2022/11/07 07:15:57;;;;;;;;;3.00;3.00;;;;;-147.14;100.00;58812.66;5001470;28;45400;-60
2022/11/07 07:18:23;;;;;;;;;5.00;2.33;;;;;-147.14;100.00;58812.66;5000301;28;65904;-60
2022/11/07 07:20:50;;;;;;;;;4.33;3.00;;;;;-147.14;100.00;58812.66;4999574;28;45392;-60
2022/11/07 07:23:16;;;;;;;;;6.33;3.00;;;;;-147.14;100.00;58812.66;5019320;28;45564;-60
2022/11/07 07:25:41;;;;;;;;;3.00;3.00;;;;;-147.14;100.00;58812.66;5004253;28;45341;-60
2022/11/07 07:28:07;;;;;;;;;7.33;2.33;;;;;-147.14;100.00;58812.66;5006971;28;59199;-60
2022/11/07 07:30:32;;;;;;;;;4.33;1.67;;;;;-147.14;100.00;58812.66;5008758;28;73046;-62
2022/11/07 07:32:58;;;;;;;;;1.00;0.00;;;;;-147.14;100.00;58812.66;5010511;28;45437;-61
2022/11/07 07:35:23;;;;;;;;;5.33;3.00;;;;;-147.14;100.00;58812.66;5000561;28;45302;-63
2022/11/07 07:37:49;;;;;;;;;3.33;1.33;;;;;-147.14;100.00;58812.66;4997291;28;70413;-63
2022/11/07 07:40:15;;;;;;;;;2.00;2.00;;;;;-147.14;100.00;58812.66;5000256;28;45357;-63
2022/11/07 07:42:42;;;;;;;;;9.00;2.00;;;;;-147.14;100.00;58812.66;4999895;28;45389;-65
2022/11/07 07:45:09;;;;;;;;;5.00;3.00;;;;;-147.14;100.00;58812.66;5003938;28;45507;-65
2022/11/07 07:47:34;;;;;;;;;2.00;2.00;;;;;-147.14;100.00;58812.66;5009657;28;48016;-62
2022/11/07 07:49:59;;;;;;;;;5.33;4.00;;;;;-147.14;100.00;58812.66;4998442;28;71288;-63
2022/11/07 07:52:25;;;;;;;;;3.00;3.00;;;;;-147.14;100.00;58812.66;5014638;28;63559;-61
2022/11/07 07:54:50;;;;;;;;;3.00;3.00;;;;;-147.14;100.00;58812.66;4999469;28;45451;-61
2022/11/07 07:57:15;;;;;;;;;8.33;3.00;;;;;-147.14;100.00;58812.66;5004660;28;46239;-61
2022/11/07 07:59:41;;;;;;;;;4.00;4.00;;;;;-147.14;100.00;58812.66;5007377;28;45483;-61
2022/11/07 08:02:10;;;;;;;;;3.00;2.00;;;;;-147.14;100.00;58812.66;5017232;28;45434;-61
2022/11/07 08:04:35;;;;;;;;;2.00;1.00;;;;;-147.14;100.00;58812.66;5008527;28;45320;-61
2022/11/07 08:07:01;;;;;;;;;5.33;2.67;;;;;-147.14;100.00;58812.66;5002816;28;47069;-61
2022/11/07 08:09:26;;;;;;;;;4.67;2.67;;;;;-147.14;100.00;58812.66;5005138;28;67205;-61
2022/11/07 08:11:53;;;;;;;;;5.67;3.00;;;;;-147.14;100.00;58812.66;4999612;28;45430;-61
2022/11/07 08:14:18;;;;;;;;;3.33;2.00;;;;;-147.14;100.00;58812.66;5019609;28;49787;-61
2022/11/07 08:16:43;;;;;;;;;5.67;2.33;;;;;-147.14;100.00;58812.66;5003116;28;45405;-61
2022/11/07 08:19:09;;;;;;;;;3.67;2.67;;;;;-147.14;100.00;58812.66;4999144;28;45434;-61
2022/11/07 08:21:34;;;;;;;;;2.67;2.67;;;;;-147.14;100.00;58812.66;5001075;28;62950;-61
2022/11/07 08:24:02;;;;;;;;;3.33;2.33;;;;;-147.14;100.00;58812.66;5009700;28;57602;-61
2022/11/07 08:26:27;;;;;;;;;4.67;1.67;;;;;-147.14;100.00;58812.66;4999595;28;45970;-61
2022/11/07 08:28:53;;;;;;;;;2.00;1.00;;;;;-147.14;100.00;58812.66;5003826;28;45376;-61
2022/11/07 08:31:18;;;;;;;;;2.67;2.00;;;;;-147.14;100.00;58812.66;5000151;28;45396;-61
2022/11/07 08:33:44;;;;;;;;;0.67;0.67;;;;;-147.14;100.00;58812.66;4998530;28;62710;-61
2022/11/07 08:36:09;;;;;;;;;7.33;3.00;;;;;-147.14;100.00;58812.66;4999391;28;46017;-61
2022/11/07 08:38:35;;;;;;;;;4.00;3.00;;;;;-147.14;100.00;58812.66;5001219;28;45462;-61
2022/11/07 08:41:01;;;;;;;;;2.67;2.67;;;;;-147.14;100.00;58812.66;5001796;28;45224;-61
2022/11/07 08:43:26;;;;;;;;;4.33;2.00;;;;;-147.14;100.00;58812.66;4999555;28;45578;-61
2022/11/07 08:45:52;;;;;;;;;3.00;1.67;;;;;-147.14;100.00;58812.66;5001566;28;49846;-61
2022/11/07 08:48:18;;;;;;;;;2.67;1.67;;;;;-147.14;100.00;58812.66;5005938;28;45361;-61
2022/11/07 08:50:44;;;;;;;;;7.33;0.67;;;;;-147.14;100.00;58812.66;5003649;28;45713;-61
2022/11/07 08:53:09;;;;;;;;;5.00;1.00;;;;;-147.14;100.00;58812.66;5017344;28;45604;-61
2022/11/07 08:55:35;;;;;;;;;2.00;2.00;;;;;-147.14;100.00;58812.66;5005239;28;45483;-61
2022/11/07 08:58:03;;;;;;;;;5.00;3.00;;;;;-147.14;100.00;58812.66;5005168;28;70943;-61
2022/11/07 09:00:29;;;;;;;;;6.00;3.00;;;;;-147.14;100.00;58812.66;5007918;28;45488;-61
2022/11/07 09:02:54;;;;;;;;;5.00;4.50;;;;;-147.14;100.00;58812.66;4990648;28;45430;-61
2022/11/07 09:05:20;;;;;;;;;1.33;0.33;;;;;-147.14;100.00;58812.66;5002041;28;72613;-61
2022/11/07 09:07:45;;;;;;;;;6.33;3.33;;;;;-147.14;100.00;58812.66;5014905;28;45359;-61
2022/11/07 09:10:10;;;;;;;;;4.67;2.67;;;;;-147.14;100.00;58812.66;5004438;28;63865;-61
2022/11/07 09:12:43;;;;;;;;;1.67;1.67;;;;;-147.14;100.00;58812.66;4996947;28;55493;-61
2022/11/07 09:15:08;;;;;;;;;6.00;3.67;;;;;-147.14;100.00;58812.66;4999506;28;45607;-62
2022/11/07 09:17:34;;;;;;;;;2.67;2.00;;;;;-147.14;100.00;58812.66;5005766;28;45600;-61
2022/11/07 09:19:59;;;;;;;;;4.00;4.00;;;;;-147.14;100.00;58812.66;5013309;28;61961;-61
2022/11/07 09:22:24;;;;;;;;;3.67;2.00;;;;;-147.14;100.00;58812.66;5007812;28;50286;-61
2022/11/07 09:24:50;;;;;;;;;3.00;1.67;;;;;-147.14;100.00;58812.66;5011113;28;45494;-61
2022/11/07 09:27:15;;;;;;;;;2.67;1.67;;;;;-147.14;100.00;58812.66;5013305;28;45415;-62
2022/11/07 09:29:41;;;;;;;;;3.33;1.00;;;;;-147.14;100.00;58812.66;5007497;28;62016;-62
2022/11/07 09:32:06;;;;;;;;;3.67;1.67;;;;;-147.14;100.00;58812.66;5012803;28;45483;-61
2022/11/07 09:34:31;;;;;;;;;3.33;1.00;;;;;-147.14;100.00;58812.66;5004019;28;45467;-62
2022/11/07 09:36:56;;;;;;;;;3.00;1.00;;;;;-147.14;100.00;58812.66;5003384;28;68724;-62
2022/11/07 09:39:22;;;;;;;;;1.00;1.00;;;;;-147.14;100.00;58812.66;4998931;28;48403;-61
2022/11/07 09:41:50;;;;;;;;;2.00;1.00;;;;;-147.14;100.00;58812.66;5013380;28;56253;-62
2022/11/07 09:44:22;;;;;;;;;7.00;4.00;;;;;-147.14;100.00;58812.66;5004036;28;46123;-60
2022/11/07 09:47:07;;;;;;;;;1.00;1.00;;;;;-147.14;100.00;58812.66;5005510;28;45507;-61
2022/11/07 09:49:42;;;;;;;;;3.00;2.00;;;;;-147.14;100.00;58812.66;4998234;28;45510;-60
2022/11/07 09:52:14;;;;;;;;;4.00;0.00;;;;;-147.14;100.00;58812.66;5001954;28;45469;-61
2022/11/07 09:54:44;;;;;;;;;1.00;1.00;;;;;-147.14;100.00;58812.66;4997147;28;46339;-60
2022/11/07 09:57:15;;;;;;;;;2.33;1.00;;;;;-147.14;100.00;58812.66;5005898;28;45334;-60
2022/11/07 09:59:59;;;;;;;;;3.00;1.00;;;;;-147.14;100.00;58812.66;5011779;28;45373;-60
2022/11/07 10:02:29;;;;;;;;;4.00;1.33;;;;;-147.14;100.00;58812.66;4999746;28;45362;-60
2022/11/07 10:04:57;;;;;;;;;4.00;1.00;;;;;-147.14;100.00;58812.66;4997586;28;45998;-61
2022/11/07 10:07:56;;;;;;;;;3.00;1.33;;;;;-147.14;100.00;58812.66;4997865;28;45249;-61
2022/11/07 10:10:38;;;;;;;;;3.00;0.67;;;;;-147.14;100.00;58812.66;4959153;28;45565;-61
2022/11/07 10:13:15;;;;;;;;;2.67;1.33;;;;;-147.14;100.00;58812.66;5013472;28;45466;-60
2022/11/07 10:15:53;;;;;;;;;3.67;1.00;;;;;-147.14;100.00;58812.66;5006222;28;46287;-60
2022/11/07 10:18:18;;;;;;;;;3.00;1.00;;;;;-147.14;100.00;58812.66;5006004;28;45361;-61
2022/11/07 10:21:05;;;;;;;;;3.00;2.00;;;;;-147.14;100.00;58812.66;5001865;28;45365;-61
2022/11/07 10:23:51;;;;;;;;;5.33;3.00;;;;;-147.14;100.00;58812.66;4997840;28;45416;-60
2022/11/07 10:26:19;;;;;;;;;3.50;1.25;;;;;-147.14;100.00;58812.66;5002949;28;45335;-61
2022/11/07 10:28:48;;;;;;;;;2.00;1.67;;;;;-147.14;100.00;58812.66;5014947;28;45461;-61
2022/11/07 10:31:14;;;;;;;;;5.00;1.33;;;;;-147.14;100.00;58812.66;5019686;28;45482;-61
2022/11/07 10:33:49;;;;;;;;;0.00;0.00;;;;;-147.14;100.00;58812.66;5001369;28;45668;-61
2022/11/07 10:36:25;;;;;;;;;5.00;2.00;;;;;-147.14;100.00;58812.66;5001189;28;46342;-61
2022/11/07 10:38:50;;;;;;;;;2.00;1.00;;;;;-147.14;100.00;58812.66;5001019;28;45927;-61
2022/11/07 10:41:27;;;;;;;;;2.00;2.00;;;;;-147.14;100.00;58812.66;5002597;28;45810;-61
2022/11/07 10:44:06;;;;;;;;;1.33;1.33;;;;;-147.14;100.00;58812.66;5002312;28;45460;-61
2022/11/07 10:46:42;;;;;;;;;3.33;2.00;;;;;-147.14;100.00;58812.66;5017431;28;45403;-60
2022/11/07 10:49:21;;;;;;;;;2.67;1.00;;;;;-147.14;100.00;58812.66;5007928;28;45542;-61
2022/11/07 10:51:47;;;;;;;;;2.00;1.00;;;;;-147.14;100.00;58812.66;5001811;28;45696;-61
2022/11/07 10:54:33;;;;;;;;;3.00;3.00;;;;;-147.14;100.00;58812.66;5000799;28;45369;-61
2022/11/07 10:57:04;;;;;;;;;4.00;4.00;;;;;-147.14;100.00;58812.66;4998795;28;69266;-60
2022/11/07 10:59:32;;;;;;;;;4.00;2.00;;;;;-147.14;100.00;58812.66;5001538;28;46435;-61
2022/11/07 11:01:59;;;;;;;;;2.00;2.00;;;;;-147.14;100.00;58812.66;5009982;28;45403;-61
2022/11/07 11:04:27;;;;;;;;;8.33;4.00;;;;;-147.14;100.00;58812.66;5006674;28;45348;-61
2022/11/07 11:07:02;;;;;;;;;3.00;1.75;;;;;-147.14;100.00;58812.66;5017879;28;45628;-61
2022/11/07 11:09:32;;;;;;;;;3.00;3.00;;;;;-147.14;100.00;58812.66;5018655;28;45401;-61
2022/11/07 11:12:06;;;;;;;;;3.00;1.00;;;;;-147.14;100.00;58812.66;5003711;28;45297;-61
2022/11/07 11:14:31;;;;;;;;;3.00;1.75;;;;;-147.14;100.00;58812.66;5002404;28;45393;-61
2022/11/07 11:16:56;;;;;;;;;1.33;1.33;;;;;-147.14;100.00;58812.66;5003381;28;46503;-61
2022/11/07 11:19:25;;;;;;;;;2.50;1.00;;;;;-147.14;100.00;58812.66;5009381;28;45529;-61
2022/11/07 11:21:53;;;;;;;;;3.00;1.00;;;;;-147.14;100.00;58812.66;5012162;28;45270;-61
2022/11/07 11:24:33;;;;;;;;;3.33;2.00;;;;;-147.14;100.00;58812.66;5008983;28;45660;-62
2022/11/07 11:27:21;;;;;;;;;1.75;1.50;;;;;-147.14;100.00;58812.66;5004889;28;46228;-61
2022/11/07 11:29:59;;;;;;;;;2.00;2.00;;;;;-147.14;100.00;58812.66;5005122;28;45428;-61
2022/11/07 11:32:30;;;;;;;;;4.25;1.00;;;;;-147.14;100.00;58812.66;5000076;28;46103;-61
2022/11/07 11:35:15;;;;;;;;;4.75;2.00;;;;;-147.14;100.00;58812.66;5000813;28;45580;-62
2022/11/07 11:37:42;;;;;;;;;4.00;2.50;;;;;-147.14;100.00;58812.66;4999247;28;47090;-60
2022/11/07 11:40:14;;;;;;;;;3.00;1.75;;;;;-147.14;100.00;58812.66;5001828;28;45388;-61
2022/11/07 11:42:57;;;;;;;;;1.00;1.00;;;;;-147.14;100.00;58812.66;5013171;28;45390;-61
2022/11/07 11:45:25;;;;;;;;;1.00;1.00;;;;;-147.14;100.00;58812.66;5001322;28;45297;-61
2022/11/07 11:48:03;;;;;;;;;4.75;1.75;;;;;-147.14;100.00;58812.66;5000195;28;46841;-62
2022/11/07 11:50:35;;;;;;;;;1.00;1.00;;;;;-147.14;100.00;58812.66;5000568;28;45475;-61
2022/11/07 11:53:01;;;;;;;;;1.25;1.25;;;;;-147.14;100.00;58812.66;4999810;28;45364;-61
2022/11/07 11:55:34;;;;;;;;;4.00;1.33;;;;;-147.14;100.00;58812.66;5000712;28;60886;-60
2022/11/07 11:58:23;;;;;;;;;3.67;2.33;;;;;-147.14;100.00;58812.66;5000120;28;45348;-61
2022/11/07 12:01:06;;;;;;;;;3.00;1.00;;;;;-147.14;100.00;58812.66;4999852;28;45401;-61
2022/11/07 12:03:47;;;;;;;;;3.33;2.00;;;;;-147.14;100.00;58812.66;5011443;28;45424;-61
2022/11/07 12:06:45;;;;;;;;;2.75;2.00;;;;;-147.14;100.00;58812.66;5019136;28;45210;-61
2022/11/07 12:09:27;;;;;;;;;1.50;1.50;;;;;-147.14;100.00;58812.66;5006238;28;45442;-61
2022/11/07 12:12:28;;;;;;;;;2.25;2.00;;;;;-147.14;100.00;58812.66;4999071;28;45271;-61
2022/11/07 12:14:57;;;;;;;;;3.00;2.00;;;;;-147.14;100.00;58812.66;5018232;28;45417;-61
2022/11/07 12:17:28;;;;;;;;;2.00;1.00;;;;;-147.14;100.00;58812.66;5002847;28;45613;-61
2022/11/07 12:19:53;;;;;;;;;4.25;2.25;;;;;-147.14;100.00;58812.66;5002948;28;46819;-61
2022/11/07 12:22:21;;;;;;;;;6.00;1.25;;;;;-147.14;100.00;58812.66;5001989;28;45448;-61
2022/11/07 12:24:51;;;;;;;;;3.00;2.00;;;;;-147.14;100.00;58812.66;5000088;28;45357;-61
2022/11/07 12:27:28;;;;;;;;;4.00;1.00;;;;;-147.14;100.00;58812.66;4999917;28;45662;-60
2022/11/07 12:30:21;;;;;;;;;5.25;1.25;;;;;-147.14;100.00;58812.66;5003754;28;45581;-60
2022/11/07 12:32:59;;;;;;;;;3.25;2.75;;;;;-147.14;100.00;58812.66;4999139;28;45415;-60
2022/11/07 12:35:49;;;;;;;;;2.25;2.00;;;;;-147.14;100.00;58812.66;5018774;28;45720;-61
2022/11/07 12:38:33;;;;;;;;;1.50;1.50;;;;;-147.14;100.00;58812.66;5014265;28;45377;-61
2022/11/07 12:41:06;;;;;;;;;2.00;2.00;;;;;-147.14;100.00;58812.66;5010658;28;47176;-61
2022/11/07 12:43:41;;;;;;;;;2.00;2.00;;;;;-147.14;100.00;58812.66;5006536;28;45495;-61
2022/11/07 12:46:16;;;;;;;;;2.00;2.00;;;;;-147.14;100.00;58812.66;5016663;28;45396;-61
2022/11/07 12:48:59;;;;;;;;;2.00;2.00;;;;;-147.14;100.00;58812.66;5006766;28;45486;-61
2022/11/07 12:51:45;;;;;;;;;2.50;2.50;;;;;-147.14;100.00;58812.66;5016595;28;46303;-60
2022/11/07 12:54:30;;;;;;;;;1.50;1.25;;;;;-147.14;100.00;58812.66;5004940;28;45456;-61
2022/11/07 12:56:56;;;;;;;;;2.25;2.00;;;;;-147.14;100.00;58812.66;5006605;28;45747;-62
2022/11/07 12:59:25;;;;;;;;;2.00;1.00;;;;;-147.14;100.00;58812.66;5025558;28;66570;-62
2022/11/07 13:02:15;;;;;;;;;4.75;0.00;;;;;-147.14;100.00;58812.66;5009106;28;47336;-62
2022/11/07 13:04:58;;;;;;;;;3.50;2.00;;;;;-147.14;100.00;58812.66;5006128;28;45386;-61
2022/11/07 13:07:40;;;;;;;;;4.00;2.00;;;;;-147.14;100.00;58812.66;5013716;28;45526;-62
2022/11/07 13:10:28;;;;;;;;;2.00;2.00;;;;;-147.14;100.00;58812.66;4983113;28;45636;-61
2022/11/07 13:13:04;;;;;;;;;2.25;2.25;;;;;-147.14;100.00;58812.66;5011954;28;47692;-60
2022/11/07 13:15:30;;;;;;;;;1.25;1.00;;;;;-147.14;100.00;58812.66;5009445;28;45530;-61
2022/11/07 13:17:55;;;;;;;;;5.00;1.25;;;;;-147.14;100.00;58812.66;5001055;28;45679;-60
2022/11/07 13:20:20;;;;;;;;;4.00;3.00;;;;;-147.14;100.00;58812.66;4998631;28;65388;-61
2022/11/07 13:22:48;;;;;;;;;3.50;2.00;;;;;-147.14;100.00;58812.66;4999287;28;48286;-61
2022/11/07 13:25:13;;;;;;;;;4.00;1.00;;;;;-147.14;100.00;58812.66;4999899;28;45365;-61
2022/11/07 13:27:43;;;;;;;;;5.25;2.00;;;;;-147.14;100.00;58812.66;5009713;28;45328;-61
2022/11/07 13:30:20;;;;;;;;;1.25;1.00;;;;;-147.14;100.00;58812.66;5002581;28;45579;-61
2022/11/07 13:32:47;;;;;;;;;1.25;1.25;;;;;-147.14;100.00;58812.66;4995818;28;47411;-62
2022/11/07 13:35:22;;;;;;;;;2.00;1.25;;;;;-147.14;100.00;58812.66;5001146;28;45420;-60
2022/11/07 13:38:11;;;;;;;;;2.75;1.25;;;;;-147.14;100.00;58812.66;4999261;28;45568;-61
2022/11/07 13:40:39;;;;;;;;;3.00;2.00;;;;;-147.14;100.00;58812.66;4997956;28;45420;-61
2022/11/07 13:43:16;;;;;;;;;5.00;3.25;;;;;-147.14;100.00;58812.66;4999784;28;47114;-60
2022/11/07 13:45:47;;;;;;;;;2.25;2.25;;;;;-147.14;100.00;58812.66;4998113;28;45479;-61
2022/11/07 13:48:19;;;;;;;;;4.25;2.25;;;;;-147.14;100.00;58812.66;4998748;28;45388;-61
2022/11/07 13:50:50;;;;;;;;;1.00;1.00;;;;;-147.14;100.00;58812.66;4998778;28;45814;-60
2022/11/07 13:53:36;;;;;;;;;5.00;1.75;;;;;-147.14;100.00;58812.66;5014807;28;45451;-60
2022/11/07 13:56:27;;;;;;;;;2.00;1.00;;;;;-147.14;100.00;58812.66;5001444;28;45402;-61
2022/11/07 13:58:53;;;;;;;;;1.50;1.00;;;;;-147.14;100.00;58812.66;5014843;28;45470;-61
2022/11/07 14:01:20;;;;;;;;;1.75;1.50;;;;;-147.14;100.00;58812.66;4998718;28;70501;-61
2022/11/07 14:03:45;;;;;;;;;1.00;1.00;;;;;-147.14;100.00;58812.66;5001079;28;47680;-61
2022/11/07 14:06:15;;;;;;;;;2.75;0.50;;;;;-147.14;100.00;58812.66;5001051;28;68285;-61
2022/11/07 14:08:44;;;;;;;;;1.50;1.50;;;;;-147.14;100.00;58812.66;5000541;28;50913;-61
2022/11/07 14:11:17;;;;;;;;;1.00;1.00;;;;;-147.14;100.00;58812.66;5003446;28;45459;-60
2022/11/07 14:13:49;;;;;;;;;2.00;1.00;;;;;-147.14;100.00;58812.66;5013154;28;46056;-61
2022/11/07 14:16:25;;;;;;;;;4.00;1.00;;;;;-147.14;100.00;58812.66;5005001;28;45473;-61
2022/11/07 14:19:05;;;;;;;;;2.75;1.00;;;;;-147.14;100.00;58812.66;5004336;28;45479;-61
2022/11/07 14:21:33;;;;;;;;;2.00;1.00;;;;;-147.14;100.00;58812.66;5011983;28;45518;-61
2022/11/07 14:23:59;;;;;;;;;2.25;0.00;;;;;-147.14;100.00;58812.66;5004386;28;45464;-61
2022/11/07 14:26:31;;;;;;;;;3.75;0.50;;;;;-147.14;100.00;58812.66;5013395;28;61661;-61
2022/11/07 14:28:59;;;;;;;;;1.75;1.00;;;;;-147.14;100.00;58812.66;5006960;28;45488;-61
2022/11/07 14:31:35;;;;;;;;;1.25;1.25;;;;;-147.14;100.00;58812.66;5001099;28;45559;-61
2022/11/07 14:34:12;;;;;;;;;2.50;1.75;;;;;-147.14;100.00;58812.66;5000988;28;46394;-61
2022/11/07 14:36:46;;;;;;;;;2.00;2.00;;;;;-147.14;100.00;58812.66;5001034;28;45301;-61
2022/11/07 14:39:12;;;;;;;;;3.00;0.75;;;;;-147.14;100.00;58812.66;5001569;28;45242;-60
2022/11/07 14:41:40;;;;;;;;;3.75;1.00;;;;;-147.14;100.00;58812.66;5004616;28;45531;-60
2022/11/07 14:44:08;;;;;;;;;2.00;0.67;;;;;-147.14;100.00;58812.66;5019129;28;45753;-60
2022/11/07 14:46:34;;;;;;;;;7.00;2.00;;;;;-147.14;100.00;58812.66;5006039;28;45480;-60
2022/11/07 14:48:59;;;;;;;;;4.00;2.00;;;;;-147.14;100.00;58812.66;5008309;28;62237;-61
2022/11/07 14:51:26;;;;;;;;;3.00;1.50;;;;;-147.14;100.00;58812.66;5000706;28;64710;-60
2022/11/07 14:54:27;;;;;;;;;1.00;1.00;;;;;-147.14;100.00;58812.66;5011588;28;48509;-60
2022/11/07 14:56:54;;;;;;;;;2.67;2.67;;;;;-147.14;100.00;58812.66;4957686;28;45380;-61
2022/11/07 14:59:22;;;;;;;;;3.00;2.00;;;;;-147.14;100.00;58812.66;5017672;28;45408;-61
2022/11/07 15:01:59;;;;;;;;;4.75;3.00;;;;;-147.14;100.00;58812.66;5018150;28;45181;-61
2022/11/07 15:04:35;;;;;;;;;3.75;2.00;;;;;-147.14;100.00;58812.66;5005507;28;45422;-61
2022/11/07 15:07:22;;;;;;;;;4.50;1.00;;;;;-147.14;100.00;58812.66;5017188;28;45535;-61
2022/11/07 15:09:49;;;;;;;;;2.00;1.00;;;;;-147.14;100.00;58812.66;5003221;28;45475;-61
2022/11/07 15:12:20;;;;;;;;;4.00;2.00;;;;;-147.14;100.00;58812.66;5001248;28;45394;-60
2022/11/07 15:14:59;;;;;;;;;3.75;3.00;;;;;-147.14;100.00;58812.66;5001945;28;45744;-60
2022/11/07 15:17:26;;;;;;;;;2.67;2.00;;;;;-147.14;100.00;58812.66;5003241;28;45272;-60
2022/11/07 15:19:58;;;;;;;;;2.33;2.00;;;;;-147.14;100.00;58812.66;5011637;28;45670;-60
2022/11/07 15:22:35;;;;;;;;;3.67;3.33;;;;;-147.14;100.00;58812.66;5006830;28;45539;-60
2022/11/07 15:25:01;;;;;;;;;2.00;2.00;;;;;-147.14;100.00;58812.66;5003912;28;45558;-60
2022/11/07 15:27:31;;;;;;;;;2.00;2.00;;;;;-147.14;100.00;58812.66;4999835;28;69170;-60
2022/11/07 15:29:58;;;;;;;;;1.00;1.00;;;;;-147.14;100.00;58812.66;5005184;28;45428;-59
2022/11/07 15:32:30;;;;;;;;;2.00;2.00;;;;;-147.14;100.00;58812.66;5019085;28;45443;-60
2022/11/07 15:34:56;;;;;;;;;4.33;3.67;;;;;-147.14;100.00;58812.66;5004996;28;46208;-60
2022/11/07 15:37:23;;;;;;;;;4.00;2.33;;;;;-147.14;100.00;58812.66;5008160;28;45416;-60
2022/11/07 15:39:49;;;;;;;;;4.33;3.00;;;;;-147.14;100.00;58812.66;5002815;28;45427;-60
2022/11/07 15:42:14;;;;;;;;;3.00;3.00;;;;;-147.14;100.00;58812.66;5000285;28;58596;-60
2022/11/07 15:44:40;;;;;;;;;2.00;2.00;;;;;-147.14;100.00;58812.66;5000247;28;45404;-61
2022/11/07 15:47:06;;;;;;;;;3.33;2.00;;;;;-147.14;100.00;58812.66;4999893;28;45444;-61
2022/11/07 15:49:32;;;;;;;;;3.00;3.00;;;;;-147.14;100.00;58812.66;4999515;28;45637;-61
2022/11/07 15:51:58;;;;;;;;;11.00;3.00;;;;;-147.14;100.00;58812.66;5009005;28;45511;-61
2022/11/07 15:54:25;;;;;;;;;2.00;1.67;;;;;-147.14;100.00;58812.66;5002200;28;45481;-61
2022/11/07 15:56:53;;;;;;;;;3.67;2.00;;;;;-147.14;100.00;58812.66;5009253;28;46044;-61
2022/11/07 15:59:20;;;;;;;;;3.67;1.67;;;;;-147.14;100.00;58812.66;5014486;28;45539;-61
2022/11/07 16:01:46;;;;;;;;;4.67;4.00;;;;;-147.14;100.00;58812.66;5003642;28;45533;-61
2022/11/07 16:04:13;;;;;;;;;5.00;2.00;;;;;-147.14;100.00;58812.66;5006783;28;46544;-61
2022/11/07 16:06:38;;;;;;;;;2.33;2.00;;;;;-147.14;100.00;58812.66;5013196;28;45442;-61
2022/11/07 16:09:11;;;;;;;;;4.00;3.00;;;;;-147.14;100.00;58812.66;5010723;28;45516;-61
2022/11/07 16:11:36;;;;;;;;;2.00;2.00;;;;;-147.14;100.00;58812.66;5017121;28;45700;-61
2022/11/07 16:14:03;;;;;;;;;2.67;1.67;;;;;-147.14;100.00;58812.66;5005480;28;69971;-61
2022/11/07 16:16:31;;;;;;;;;5.00;4.67;;;;;-147.14;100.00;58812.66;5002145;28;45360;-61
2022/11/07 16:18:56;;;;;;;;;2.33;2.33;;;;;-147.14;100.00;58812.66;4991700;28;46129;-60
2022/11/07 16:21:22;;;;;;;;;2.33;2.00;;;;;-147.14;100.00;58812.66;5001702;28;68721;-61
2022/11/07 16:23:48;;;;;;;;;6.00;3.00;;;;;-147.14;100.00;58812.66;5003943;28;75807;-61
2022/11/07 16:26:25;;;;;;;;;6.33;2.00;;;;;-147.14;100.00;58812.66;5002012;28;45691;-61
2022/11/07 16:28:50;;;;;;;;;10.33;7.00;;;;;-147.14;100.00;58812.66;5005452;28;45171;-61
2022/11/07 16:31:16;;;;;;;;;3.33;3.00;;;;;-147.14;100.00;58812.66;5008729;28;47198;-61
2022/11/07 16:33:41;;;;;;;;;4.67;2.33;;;;;-147.14;100.00;58812.66;5006550;28;46209;-61
2022/11/07 16:36:17;;;;;;;;;4.00;3.00;;;;;-147.14;100.00;58812.66;5001913;28;45479;-61
2022/11/07 16:38:42;;;;;;;;;3.00;3.00;;;;;-147.14;100.00;58812.66;4997100;28;45437;-61
2022/11/07 16:41:07;;;;;;;;;3.00;2.67;;;;;-147.14;100.00;58812.66;4999625;28;63429;-60
2022/11/07 16:43:34;;;;;;;;;1.33;1.33;;;;;-147.14;100.00;58812.66;5010103;28;45766;-61
2022/11/07 16:45:59;;;;;;;;;3.33;0.33;;;;;-147.14;100.00;58812.66;4999199;28;45344;-61
2022/11/07 16:48:28;;;;;;;;;3.00;2.00;;;;;-147.14;100.00;58812.66;5003888;28;45444;-60
2022/11/07 16:50:54;;;;;;;;;2.67;2.00;;;;;-147.14;100.00;58812.66;5008877;28;45538;-60
2022/11/07 16:53:20;;;;;;;;;4.33;1.33;;;;;-147.14;100.00;58812.66;4998265;28;46451;-60